Time;durP1;ratioP1;P1;durP2;ratioP2;P2;SDS_P1;SDS_P2;PMS_P1;PMS_P2;Temp;Humidity;BMP_temperature;BMP_pressure;BME280_temperature;BME280_humidity;BME280_pressure;Samples;Min_cycle;Max_cycle;Signal;HPM_P1;HPM_P2
2022/03/12 00:01:57;;;;;;;11.20;5.18;;;;;;;8.75;36.29;101321.53;5072240;28;20272;-65
2022/03/12 00:04:26;;;;;;;9.35;4.80;;;;;;;8.75;36.27;101325.91;5072700;28;20064;-65
2022/03/12 00:06:54;;;;;;;12.25;5.72;;;;;;;8.74;36.40;101326.81;5072773;28;20197;-65
2022/03/12 00:09:23;;;;;;;12.23;5.30;;;;;;;8.78;35.90;101325.75;5072605;28;20082;-66
2022/03/12 00:11:56;;;;;;;10.02;5.00;;;;;;;8.70;36.71;101330.53;5072648;28;20065;-66
2022/03/12 00:14:28;;;;;;;12.77;5.30;;;;;;;8.75;36.30;101325.91;5105105;28;20053;-64
2022/03/12 00:16:56;;;;;;;11.57;5.72;;;;;;;8.76;36.48;101317.13;5072690;28;20053;-64
2022/03/12 00:19:24;;;;;;;12.07;5.68;;;;;;;8.70;36.11;101317.41;5071557;28;20041;-64
2022/03/12 00:21:54;;;;;;;10.77;5.35;;;;;;;8.68;36.11;101314.03;5072455;28;20548;-64
2022/03/12 00:24:23;;;;;;;10.68;5.00;;;;;;;8.62;36.55;101323.91;5072479;28;20048;-64
2022/03/12 00:26:51;;;;;;;13.02;5.40;;;;;;;8.67;36.51;101322.81;5072139;28;20049;-64
2022/03/12 00:29:20;;;;;;;9.35;4.72;;;;;;;8.65;36.38;101327.31;5072176;28;20112;-65
2022/03/12 00:31:54;;;;;;;10.98;5.20;;;;;;;8.69;36.34;101329.69;5070935;28;20063;-65
2022/03/12 00:34:22;;;;;;;11.13;5.47;;;;;;;8.64;36.79;101334.31;5072535;28;20048;-65
2022/03/12 00:36:50;;;;;;;9.30;5.50;;;;;;;8.57;36.69;101331.13;5072029;28;20051;-66
2022/03/12 00:39:21;;;;;;;12.02;5.20;;;;;;;8.63;36.63;101322.97;5071563;28;20669;-64
2022/03/12 00:41:50;;;;;;;10.55;5.40;;;;;;;8.64;36.93;101329.06;5071498;28;20052;-65
2022/03/12 00:44:18;;;;;;;12.20;5.72;;;;;;;8.64;36.91;101326.44;5071372;28;20483;-65
2022/03/12 00:46:47;;;;;;;11.82;5.78;;;;;;;8.61;36.68;101322.19;5072182;28;20499;-65
2022/03/12 00:49:17;;;;;;;11.45;5.57;;;;;;;8.66;36.99;101321.13;5072251;28;20090;-65
2022/03/12 00:51:48;;;;;;;11.68;5.82;;;;;;;8.63;37.08;101330.84;5072062;28;20048;-65
2022/03/12 00:54:16;;;;;;;12.38;6.40;;;;;;;8.59;36.84;101323.22;5072193;28;20052;-65
2022/03/12 00:56:44;;;;;;;11.98;5.28;;;;;;;8.60;36.90;101330.13;5071913;28;20049;-65
2022/03/12 00:59:12;;;;;;;9.30;5.78;;;;;;;8.57;36.92;101325.88;5071850;28;20052;-66
2022/03/12 01:01:41;;;;;;;11.98;5.90;;;;;;;8.56;37.23;101331.22;5071874;28;20098;-65
2022/03/12 01:04:10;;;;;;;12.07;5.85;;;;;;;8.54;37.00;101333.06;5071724;28;20033;-65
2022/03/12 01:06:43;;;;;;;10.60;5.95;;;;;;;8.55;37.23;101340.84;5071726;28;20067;-65
2022/03/12 01:09:13;;;;;;;10.02;5.70;;;;;;;8.48;37.53;101334.22;5071567;28;20037;-65
2022/03/12 01:11:43;;;;;;;11.05;6.05;;;;;;;8.52;37.79;101334.91;5072251;28;20094;-65
2022/03/12 01:14:11;;;;;;;13.88;6.20;;;;;;;8.51;37.84;101334.06;5071778;28;20047;-65
2022/03/12 01:16:40;;;;;;;11.93;5.70;;;;;;;8.57;37.70;101340.78;5070567;28;20065;-65
2022/03/12 01:19:10;;;;;;;13.27;5.50;;;;;;;8.52;38.00;101341.00;5071724;28;20083;-65
2022/03/12 01:21:40;;;;;;;12.65;5.68;;;;;;;8.53;37.96;101337.44;5071750;28;20052;-65
2022/03/12 01:24:08;;;;;;;11.48;6.63;;;;;;;8.55;38.08;101345.22;5071809;28;20049;-65
2022/03/12 01:26:40;;;;;;;11.45;5.53;;;;;;;8.56;37.69;101339.94;5072031;28;20083;-65
2022/03/12 01:29:09;;;;;;;10.05;5.82;;;;;;;8.50;38.27;101332.34;5071869;28;20091;-65
2022/03/12 01:31:39;;;;;;;11.13;5.65;;;;;;;8.52;38.39;101338.41;5071716;28;20041;-65
2022/03/12 01:34:09;;;;;;;11.18;4.93;;;;;;;8.51;38.18;101339.31;5071760;28;20178;-65
2022/03/12 01:36:37;;;;;;;10.35;5.75;;;;;;;8.51;38.56;101339.31;5070247;28;20533;-66
2022/03/12 01:39:07;;;;;;;13.00;6.13;;;;;;;8.48;38.00;101339.47;5069995;28;20094;-65
2022/03/12 01:41:41;;;;;;;10.85;5.95;;;;;;;8.56;38.64;101334.69;5070335;28;20094;-65
2022/03/12 01:44:10;;;;;;;11.23;5.70;;;;;;;8.54;38.50;101343.56;5071554;28;20053;-65
2022/03/12 01:46:45;;;;;;;11.10;5.57;;;;;;;8.52;38.68;101345.38;5071584;28;20447;-65
2022/03/12 01:49:18;;;;;;;12.60;5.80;;;;;;;8.53;38.61;101345.31;5071442;28;20395;-66
2022/03/12 01:51:49;;;;;;;10.77;6.07;;;;;;;8.52;39.01;101348.88;5071321;28;20083;-66
2022/03/12 01:54:21;;;;;;;11.07;5.65;;;;;;;8.59;38.72;101352.91;5071447;28;20048;-65
2022/03/12 01:56:50;;;;;;;12.73;5.55;;;;;;;8.55;38.88;101353.09;5072942;28;20068;-65
2022/03/12 01:59:19;;;;;;;12.07;6.03;;;;;;;8.55;38.61;101351.34;5074981;28;20075;-65
2022/03/12 02:01:52;;;;;;;10.90;5.63;;;;;;;8.56;39.07;101357.44;5074909;28;20049;-65
2022/03/12 02:04:22;;;;;;;12.13;6.30;;;;;;;8.57;39.16;101349.47;5075190;28;20048;-65
2022/03/12 02:06:51;;;;;;;11.30;5.78;;;;;;;8.54;39.16;101362.75;5075036;28;20044;-64
2022/03/12 02:09:21;;;;;;;11.95;6.07;;;;;;;8.64;40.22;101357.91;5074824;28;20048;-65
2022/03/12 02:11:50;;;;;;;11.95;6.18;;;;;;;8.59;40.40;101358.13;5074803;28;20375;-64
2022/03/12 02:14:21;;;;;;;13.23;5.90;;;;;;;8.58;41.50;101359.06;5074722;28;20045;-65
2022/03/12 02:16:50;;;;;;;10.32;5.85;;;;;;;8.57;41.70;101357.34;5074810;28;20052;-65
2022/03/12 02:19:20;;;;;;;11.52;5.95;;;;;;;8.48;42.27;101354.31;5074795;28;20087;-65
2022/03/12 02:21:51;;;;;;;11.90;6.60;;;;;;;8.44;43.17;101366.72;5074586;28;20070;-65
2022/03/12 02:24:23;;;;;;;13.90;6.40;;;;;;;8.52;43.59;101364.63;5074099;28;20534;-64
2022/03/12 02:26:53;;;;;;;12.27;6.35;;;;;;;8.42;44.24;101369.38;5074026;28;20068;-64
2022/03/12 02:29:23;;;;;;;12.63;6.85;;;;;;;8.41;44.13;101372.09;5074681;28;20053;-65
2022/03/12 02:31:54;;;;;;;12.95;5.90;;;;;;;8.41;44.15;101370.34;5074550;28;20066;-65
2022/03/12 02:34:26;;;;;;;12.70;6.50;;;;;;;8.36;43.85;101368.84;5074476;28;20044;-65
2022/03/12 02:36:57;;;;;;;13.70;6.60;;;;;;;8.35;43.83;101369.78;5074782;28;20040;-65
2022/03/12 02:39:27;;;;;;;12.85;6.25;;;;;;;8.34;44.52;101370.69;5074287;28;20057;-65
2022/03/12 02:41:56;;;;;;;11.98;5.97;;;;;;;8.29;44.00;101373.53;5074016;28;20068;-65
2022/03/12 02:44:25;;;;;;;11.02;5.93;;;;;;;8.27;45.31;101372.75;5074236;28;20067;-66
2022/03/12 02:47:15;;;;;;;10.93;6.32;;;;;;;8.23;44.59;101361.53;5074349;28;20056;-65
2022/03/12 02:49:49;;;;;;;12.20;6.28;;;;;;;8.25;45.12;101364.97;5074321;28;20091;-64
2022/03/12 02:52:19;;;;;;;12.95;5.85;;;;;;;8.27;46.10;101368.34;5074040;28;20048;-64
2022/03/12 02:54:50;;;;;;;12.43;5.95;;;;;;;8.21;46.16;101365.19;5073174;28;20065;-64
2022/03/12 02:57:24;;;;;;;12.07;7.20;;;;;;;8.15;47.73;101366.28;5073906;28;20040;-64
2022/03/12 02:59:54;;;;;;;12.55;6.45;;;;;;;8.18;46.61;101362.69;5074058;28;20052;-64
2022/03/12 03:02:25;;;;;;;11.32;5.93;;;;;;;8.15;47.21;101368.06;5073906;28;20130;-64
2022/03/12 03:04:54;;;;;;;11.98;6.32;;;;;;;8.10;46.64;101363.91;5072783;28;20135;-65
2022/03/12 03:07:23;;;;;;;12.82;6.40;;;;;;;8.09;47.54;101366.59;5073450;28;20094;-64
2022/03/12 03:09:52;;;;;;;13.82;7.03;;;;;;;8.17;46.36;101366.25;5073728;28;20511;-65
2022/03/12 03:12:23;;;;;;;11.90;6.32;;;;;;;8.12;47.36;101372.53;5073409;28;20036;-65
2022/03/12 03:14:52;;;;;;;13.32;6.55;;;;;;;8.08;47.63;101373.59;5073300;28;20083;-65
2022/03/12 03:17:20;;;;;;;12.60;6.80;;;;;;;8.09;47.59;101371.84;5073567;28;20135;-65
2022/03/12 03:19:48;;;;;;;14.38;6.50;;;;;;;8.07;47.67;101374.53;5073274;28;20381;-64
2022/03/12 03:22:19;;;;;;;13.20;6.55;;;;;;;8.18;46.29;101378.41;5071829;28;20072;-64
2022/03/12 03:24:47;;;;;;;13.95;7.15;;;;;;;8.17;46.50;101377.56;5073371;28;20044;-64
2022/03/12 03:27:17;;;;;;;12.55;6.57;;;;;;;8.11;46.20;101380.47;5073471;28;20051;-65
2022/03/12 03:29:45;;;;;;;13.18;6.47;;;;;;;8.15;46.80;101374.16;5073811;28;20052;-65
2022/03/12 03:32:14;;;;;;;11.65;6.82;;;;;;;8.24;46.52;101372.91;5073491;28;20422;-65
2022/03/12 03:34:42;;;;;;;12.95;6.75;;;;;;;8.20;47.14;101387.06;5073316;28;20048;-65
2022/03/12 03:37:11;;;;;;;13.48;6.90;;;;;;;8.12;46.58;101380.38;5073650;28;20048;-65
2022/03/12 03:39:41;;;;;;;15.40;6.90;;;;;;;8.08;47.58;101383.22;5073131;28;20059;-64
2022/03/12 03:42:09;;;;;;;14.00;7.38;;;;;;;8.12;47.55;101390.03;5072921;28;20048;-65
2022/03/12 03:44:39;;;;;;;12.93;7.07;;;;;;;8.13;46.85;101405.66;5073374;28;20565;-65
2022/03/12 03:47:07;;;;;;;12.52;7.35;;;;;;;8.13;47.36;101397.81;5072910;28;20068;-65
2022/03/12 03:49:36;;;;;;;12.75;6.78;;;;;;;8.11;47.65;101399.66;5072881;28;20503;-65
2022/03/12 03:52:08;;;;;;;14.88;6.50;;;;;;;8.17;47.52;101395.06;5072834;28;20066;-66
2022/03/12 03:54:38;;;;;;;14.70;7.40;;;;;;;8.19;47.54;101395.84;5072884;28;20067;-65
2022/03/12 03:57:07;;;;;;;14.23;7.30;;;;;;;8.21;47.80;101396.63;5072638;28;20052;-65
2022/03/12 03:59:35;;;;;;;13.20;7.18;;;;;;;8.23;48.14;101389.53;5072757;28;20098;-65
2022/03/12 04:02:05;;;;;;;12.57;7.20;;;;;;;8.24;47.84;101388.63;5072413;28;20068;-66
2022/03/12 04:04:38;;;;;;;14.07;7.15;;;;;;;8.16;48.72;101402.06;5072614;28;20398;-65
2022/03/12 04:07:06;;;;;;;13.90;7.00;;;;;;;8.29;48.89;101395.34;5072487;28;20060;-66
2022/03/12 04:09:35;;;;;;;14.15;7.22;;;;;;;8.26;48.96;101395.50;5072703;28;20098;-65
2022/03/12 04:12:04;;;;;;;12.50;7.30;;;;;;;8.35;48.67;101404.69;5072015;28;20056;-64
2022/03/12 04:14:33;;;;;;;14.40;7.47;;;;;;;8.29;49.04;101386.63;5072026;28;20052;-65
2022/03/12 04:17:04;;;;;;;12.75;6.85;;;;;;;8.39;48.74;101398.38;5072441;28;20541;-65
2022/03/12 04:19:34;;;;;;;13.70;7.60;;;;;;;8.32;49.22;101402.22;5071684;28;20499;-65
2022/03/12 04:22:03;;;;;;;14.80;7.50;;;;;;;8.32;48.78;101410.06;5072269;28;20395;-65
2022/03/12 04:24:31;;;;;;;12.70;7.00;;;;;;;8.38;49.21;101404.53;5072313;28;20123;-65
2022/03/12 04:27:00;;;;;;;13.98;7.57;;;;;;;8.37;49.29;101415.09;5072371;28;20493;-66
2022/03/12 04:29:29;;;;;;;15.25;7.47;;;;;;;8.38;50.18;101422.88;5072438;28;20052;-66
2022/03/12 04:31:57;;;;;;;13.10;7.07;;;;;;;8.39;49.69;101426.38;5072071;28;20356;-65
2022/03/12 04:34:26;;;;;;;13.52;7.32;;;;;;;8.43;49.80;101423.53;5072600;28;20654;-65
2022/03/12 04:36:55;;;;;;;14.45;7.53;;;;;;;8.45;50.13;101420.84;5072240;28;20049;-66
2022/03/12 04:39:24;;;;;;;14.35;7.05;;;;;;;8.46;49.90;101426.03;5072036;28;20056;-65
2022/03/12 04:41:53;;;;;;;12.35;7.10;;;;;;;8.44;50.05;101427.00;5072476;28;20101;-65
2022/03/12 04:44:22;;;;;;;14.35;7.50;;;;;;;8.46;50.64;101428.63;5072195;28;20049;-65
2022/03/12 04:46:51;;;;;;;14.38;8.00;;;;;;;8.46;50.43;101430.44;5072296;28;20075;-65
2022/03/12 04:49:19;;;;;;;13.70;7.00;;;;;;;8.43;50.99;101431.38;5071753;28;20052;-65
2022/03/12 04:51:47;;;;;;;16.42;7.32;;;;;;;8.40;50.84;101435.94;5072101;28;20071;-65
2022/03/12 04:54:20;;;;;;;16.50;6.93;;;;;;;8.35;51.14;101441.38;5072247;28;20488;-65
2022/03/12 04:56:49;;;;;;;12.98;7.18;;;;;;;8.37;51.05;101441.31;5072390;28;20041;-65
2022/03/12 04:59:17;;;;;;;14.65;7.30;;;;;;;8.32;50.88;101438.03;5072002;28;20053;-65
2022/03/12 05:01:45;;;;;;;15.98;7.20;;;;;;;8.26;50.77;101442.66;5071972;28;20040;-65
2022/03/12 05:04:13;;;;;;;13.88;7.53;;;;;;;8.20;51.39;101449.94;5072153;28;20487;-65
2022/03/12 05:06:44;;;;;;;13.23;7.35;;;;;;;8.14;51.89;101445.84;5072065;28;20063;-65
2022/03/12 05:09:12;;;;;;;12.27;6.72;;;;;;;8.22;51.96;101445.47;5071961;28;20040;-65
2022/03/12 05:11:42;;;;;;;15.50;7.50;;;;;;;8.12;51.71;101452.91;5071953;28;20123;-65
2022/03/12 05:14:16;;;;;;;16.75;7.97;;;;;;;8.12;52.18;101453.75;5070529;28;20053;-66
2022/03/12 05:16:48;;;;;;;13.13;6.50;;;;;;;8.02;52.92;101454.25;5071898;28;20504;-65
2022/03/12 05:19:18;;;;;;;13.07;6.93;;;;;;;8.04;53.25;101457.66;5070574;28;20052;-65
2022/03/12 05:21:46;;;;;;;15.48;7.05;;;;;;;7.88;53.74;101460.94;5071972;28;20048;-65
2022/03/12 05:24:15;;;;;;;13.75;7.25;;;;;;;7.85;53.95;101453.19;5071751;28;20101;-65
2022/03/12 05:26:47;;;;;;;15.80;7.00;;;;;;;7.80;54.50;101449.97;5071896;28;20060;-65
2022/03/12 05:29:16;;;;;;;15.75;7.20;;;;;;;7.79;53.89;101461.34;5071582;28;20053;-65
2022/03/12 05:31:44;;;;;;;12.95;7.80;;;;;;;7.74;54.83;101461.56;5074663;28;20068;-65
2022/03/12 05:34:12;;;;;;;14.32;7.38;;;;;;;7.67;55.37;101477.59;5075611;28;20056;-64
2022/03/12 05:36:42;;;;;;;16.50;8.00;;;;;;;7.66;55.02;101474.09;5075153;28;20506;-65
2022/03/12 05:39:12;;;;;;;15.00;7.90;;;;;;;7.57;55.61;101482.38;5075230;28;20407;-64
2022/03/12 05:41:41;;;;;;;16.73;7.95;;;;;;;7.53;55.25;101486.03;5075464;28;20554;-66
2022/03/12 05:44:14;;;;;;;13.63;7.28;;;;;;;7.52;55.57;101477.31;5073866;28;20131;-66
2022/03/12 05:46:42;;;;;;;15.75;7.40;;;;;;;7.49;55.58;101480.06;5075419;28;20059;-59
2022/03/12 05:49:11;;;;;;;14.68;7.18;;;;;;;7.39;55.74;101482.22;5073806;28;20139;-57
2022/03/12 05:51:42;;;;;;;12.15;7.15;;;;;;;7.37;56.63;101480.59;5074990;28;20056;-65
2022/03/12 05:54:11;;;;;;;14.05;7.28;;;;;;;7.33;56.86;101484.25;5073055;28;20052;-58
2022/03/12 05:56:40;;;;;;;18.42;8.23;;;;;;;7.27;57.05;101483.56;5074662;28;20457;-58
2022/03/12 05:59:08;;;;;;;13.68;7.82;;;;;;;7.30;57.09;101487.00;5075011;28;20507;-58
2022/03/12 06:01:38;;;;;;;12.38;6.85;;;;;;;7.26;57.05;101494.94;5075090;28;20050;-58
2022/03/12 06:04:08;;;;;;;15.30;6.97;;;;;;;7.16;57.08;101498.88;5074969;28;20044;-58
2022/03/12 06:06:36;;;;;;;16.70;7.45;;;;;;;7.12;58.32;101497.28;5075150;28;20063;-58
2022/03/12 06:09:07;;;;;;;14.25;7.40;;;;;;;7.06;58.02;101498.38;5074830;28;20060;-58
2022/03/12 06:11:37;;;;;;;13.75;7.80;;;;;;;7.05;58.12;101501.06;5073648;28;20052;-58
2022/03/12 06:14:05;;;;;;;14.02;7.15;;;;;;;7.13;58.44;101500.75;5075000;28;20372;-58
2022/03/12 06:16:33;;;;;;;14.27;7.90;;;;;;;7.08;58.50;101506.16;5074814;28;20049;-58
2022/03/12 06:19:03;;;;;;;15.30;8.35;;;;;;;7.07;59.25;101512.31;5075104;28;20599;-58
2022/03/12 06:21:31;;;;;;;14.60;6.97;;;;;;;7.12;59.31;101518.22;5075078;28;20491;-58
2022/03/12 06:24:00;;;;;;;16.10;7.85;;;;;;;7.07;58.97;101517.53;5074595;28;20043;-58
2022/03/12 06:26:35;;;;;;;14.15;7.60;;;;;;;7.08;58.96;101516.63;5074597;28;20046;-58
2022/03/12 06:29:06;;;;;;;14.65;7.82;;;;;;;7.14;58.67;101521.59;5074285;28;20080;-66
2022/03/12 06:31:34;;;;;;;15.50;8.35;;;;;;;7.07;59.36;101528.84;5072811;28;20052;-66
2022/03/12 06:34:09;;;;;;;14.50;8.20;;;;;;;7.09;58.96;101513.13;5074210;28;20037;-66
2022/03/12 06:36:42;;;;;;;14.10;7.97;;;;;;;7.10;59.26;101528.75;5074563;28;20579;-66
2022/03/12 06:39:11;;;;;;;15.57;8.10;;;;;;;7.02;59.31;101519.47;5074252;28;20060;-66
2022/03/12 06:41:43;;;;;;;16.63;8.05;;;;;;;6.99;59.69;101525.69;5074087;28;20048;-66
2022/03/12 06:44:12;;;;;;;17.02;7.43;;;;;;;7.03;59.89;101523.81;5073970;28;20048;-66
2022/03/12 06:46:41;;;;;;;15.18;7.70;;;;;;;7.01;60.35;101529.09;5074331;28;20447;-66
2022/03/12 06:49:13;;;;;;;15.77;8.02;;;;;;;7.01;59.48;101536.06;5074319;28;20446;-66
2022/03/12 06:51:42;;;;;;;14.40;7.85;;;;;;;7.06;59.84;101531.53;5074418;28;20053;-66
2022/03/12 06:54:10;;;;;;;16.27;7.57;;;;;;;7.07;58.91;101539.31;5073969;28;20049;-66
2022/03/12 06:56:39;;;;;;;15.40;7.88;;;;;;;7.12;59.02;101533.91;5074335;28;20491;-66
2022/03/12 06:59:07;;;;;;;14.07;7.90;;;;;;;7.07;59.45;101549.75;5072723;28;20052;-67
2022/03/12 07:01:36;;;;;;;16.42;7.85;;;;;;;7.08;60.21;101545.41;5074001;28;20048;-66
2022/03/12 07:04:11;;;;;;;16.15;7.75;;;;;;;7.08;60.24;101543.63;5073761;28;20036;-66
2022/03/12 07:06:40;;;;;;;14.52;8.13;;;;;;;7.13;59.78;101547.81;5073789;28;20060;-66
2022/03/12 07:09:08;;;;;;;14.73;7.70;;;;;;;7.19;59.90;101548.44;5074206;28;20110;-66
2022/03/12 07:11:36;;;;;;;15.60;7.63;;;;;;;7.26;60.19;101555.13;5073827;28;20074;-66
2022/03/12 07:14:05;;;;;;;14.07;7.43;;;;;;;7.31;60.09;101548.84;5073733;28;20115;-66
2022/03/12 07:16:34;;;;;;;16.60;8.20;;;;;;;7.34;61.09;101552.22;5073664;28;20044;-65
2022/03/12 07:19:03;;;;;;;15.70;8.32;;;;;;;7.39;61.02;101546.78;5073689;28;20056;-67
2022/03/12 07:21:33;;;;;;;13.68;7.20;;;;;;;7.44;60.42;101555.31;5073616;28;20139;-66
2022/03/12 07:24:01;;;;;;;16.40;8.45;;;;;;;7.58;60.36;101547.75;5073634;28;20040;-65
2022/03/12 07:26:29;;;;;;;14.23;7.22;;;;;;;7.66;60.76;101557.03;5073594;28;20106;-65
2022/03/12 07:28:59;;;;;;;14.35;7.50;;;;;;;7.73;60.97;101568.94;5106133;28;20074;-66
2022/03/12 07:31:30;;;;;;;14.02;7.70;;;;;;;7.73;61.14;101567.22;5072862;28;20056;-67
2022/03/12 07:33:58;;;;;;;16.17;7.90;;;;;;;7.82;61.06;101570.34;5072922;28;20037;-66
2022/03/12 07:36:26;;;;;;;13.73;6.80;;;;;;;7.84;61.50;101574.63;5073500;28;20096;-66
2022/03/12 07:38:58;;;;;;;12.98;6.95;;;;;;;7.89;61.39;101575.25;5071917;28;20064;-66
2022/03/12 07:41:27;;;;;;;13.43;7.23;;;;;;;7.90;61.41;101578.75;5073453;28;20487;-65
2022/03/12 07:43:56;;;;;;;12.80;6.72;;;;;;;8.00;61.56;101577.41;5073168;28;20037;-65
2022/03/12 07:46:24;;;;;;;12.40;7.07;;;;;;;8.07;62.39;101576.25;5073055;28;20400;-66
2022/03/12 07:48:52;;;;;;;14.20;7.82;;;;;;;8.11;61.70;101579.56;5073385;28;20053;-65
2022/03/12 07:51:20;;;;;;;13.30;7.38;;;;;;;8.27;61.82;101578.00;5073096;28;20162;-65
2022/03/12 07:53:49;;;;;;;14.20;6.93;;;;;;;8.22;61.71;101571.25;5072145;28;20491;-65
2022/03/12 07:56:19;;;;;;;15.57;7.25;;;;;;;8.21;61.97;101577.44;5072595;28;20067;-65
2022/03/12 07:58:48;;;;;;;15.32;8.10;;;;;;;8.32;61.88;101592.66;5072634;28;20102;-66
2022/03/12 08:01:16;;;;;;;12.30;6.60;;;;;;;8.37;62.18;101593.31;5072525;28;20106;-65
2022/03/12 08:03:46;;;;;;;12.07;7.20;;;;;;;8.44;62.35;101598.25;5072615;28;20037;-65
2022/03/12 08:06:19;;;;;;;13.15;6.70;;;;;;;8.52;62.24;101584.84;5071055;28;20052;-66
2022/03/12 08:08:48;;;;;;;13.63;6.78;;;;;;;8.71;62.46;101592.72;5072559;28;20131;-65
2022/03/12 08:11:29;;;;;;;12.70;6.95;;;;;;;8.87;61.52;101603.34;5072807;28;20139;-65
2022/03/12 08:14:02;;;;;;;13.55;7.18;;;;;;;8.85;62.24;101599.09;5072660;28;20041;-65
2022/03/12 08:16:33;;;;;;;12.18;6.53;;;;;;;8.89;61.76;101598.88;5072744;28;20102;-67
2022/03/12 08:19:04;;;;;;;13.00;6.45;;;;;;;9.09;62.90;101605.84;5072808;28;20105;-66
2022/03/12 08:21:33;;;;;;;12.95;6.72;;;;;;;9.31;61.72;101617.94;5072919;28;20075;-65
2022/03/12 08:24:02;;;;;;;11.93;6.78;;;;;;;9.27;61.69;101617.25;5071432;28;20091;-66
2022/03/12 08:26:32;;;;;;;11.38;6.22;;;;;;;9.37;62.66;101614.19;5072528;28;20036;-65
2022/03/12 08:29:02;;;;;;;12.25;6.50;;;;;;;9.51;61.91;101624.88;5072732;28;20079;-65
2022/03/12 08:31:30;;;;;;;13.77;6.55;;;;;;;9.62;62.36;101632.22;5072623;28;20052;-66
2022/03/12 08:33:58;;;;;;;10.80;6.40;;;;;;;9.72;62.53;101632.63;5072511;28;20051;-65
2022/03/12 08:36:26;;;;;;;12.20;6.88;;;;;;;9.79;62.94;101637.50;5072716;28;20496;-66
2022/03/12 08:38:56;;;;;;;12.43;6.80;;;;;;;9.80;63.15;101633.09;5072031;28;20052;-65
2022/03/12 08:41:26;;;;;;;13.40;6.88;;;;;;;9.89;63.48;101637.91;5072301;28;20052;-66
2022/03/12 08:43:54;;;;;;;13.75;6.57;;;;;;;9.93;63.44;101641.22;5072409;28;20041;-66
2022/03/12 08:46:24;;;;;;;11.55;6.55;;;;;;;9.98;63.20;101650.59;5072135;28;20058;-66
2022/03/12 08:48:53;;;;;;;11.73;6.75;;;;;;;10.02;63.79;101645.16;5072278;28;20147;-66
2022/03/12 08:51:21;;;;;;;13.85;6.80;;;;;;;10.20;63.62;101646.88;5072098;28;20043;-66
2022/03/12 08:53:49;;;;;;;14.48;6.90;;;;;;;10.26;64.40;101653.59;5072129;28;20041;-65
2022/03/12 08:56:18;;;;;;;12.35;7.43;;;;;;;10.19;65.57;101662.72;5072054;28;20102;-65
2022/03/12 08:58:47;;;;;;;13.68;6.90;;;;;;;10.27;65.30;101666.66;5072232;28;20046;-65
2022/03/12 09:01:16;;;;;;;12.82;6.90;;;;;;;10.37;65.42;101659.19;5072026;28;20070;-66
2022/03/12 09:03:46;;;;;;;11.25;6.40;;;;;;;10.48;65.82;101661.25;5072218;28;20072;-65
2022/03/12 09:06:15;;;;;;;13.63;7.18;;;;;;;10.52;66.36;101659.34;5072640;28;20060;-65
2022/03/12 09:08:44;;;;;;;15.27;6.07;;;;;;;10.67;65.95;101652.41;5075556;28;20135;-65
2022/03/12 09:11:16;;;;;;;11.60;7.20;;;;;;;10.58;66.72;101648.47;5075675;28;20055;-65
2022/03/12 09:13:46;;;;;;;10.88;6.82;;;;;;;10.89;67.20;101639.81;5076075;28;20418;-66
2022/03/12 09:16:16;;;;;;;11.57;7.00;;;;;;;10.98;65.94;101647.22;5075899;28;20475;-65
2022/03/12 09:18:46;;;;;;;11.18;6.03;;;;;;;11.15;65.85;101651.56;5075992;28;20048;-65
2022/03/12 09:21:15;;;;;;;13.77;6.57;;;;;;;11.28;66.36;101648.25;5076127;28;20041;-65
2022/03/12 09:23:43;;;;;;;14.15;6.43;;;;;;;11.47;65.69;101651.56;5075819;28;20582;-65
2022/03/12 09:26:13;;;;;;;11.82;7.05;;;;;;;11.57;65.64;101648.41;5075905;28;20102;-65
2022/03/12 09:28:42;;;;;;;12.35;6.63;;;;;;;11.52;67.05;101655.72;5075912;28;20040;-65
2022/03/12 09:31:11;;;;;;;11.38;6.82;;;;;;;11.66;67.07;101647.91;5075610;28;20047;-64
2022/03/12 09:33:41;;;;;;;11.02;6.18;;;;;;;11.87;67.19;101642.31;5076091;28;20070;-65
2022/03/12 09:36:11;;;;;;;13.55;5.68;;;;;;;11.86;67.17;101652.00;5075594;28;20128;-67
2022/03/12 09:38:40;;;;;;;11.55;6.55;;;;;;;11.80;67.24;101647.09;5075093;28;20139;-65
2022/03/12 09:41:08;;;;;;;12.05;5.80;;;;;;;11.82;68.42;101656.63;5075468;28;20040;-66
2022/03/12 09:43:36;;;;;;;11.20;5.80;;;;;;;11.78;69.23;101654.22;5075475;28;20063;-65
2022/03/12 09:46:05;;;;;;;11.63;6.03;;;;;;;11.63;69.47;101659.47;5075298;28;20044;-65
2022/03/12 09:48:34;;;;;;;11.55;6.03;;;;;;;11.79;69.80;101666.47;5075395;28;20048;-65
2022/03/12 09:51:03;;;;;;;13.95;6.45;;;;;;;11.87;69.63;101661.63;5075345;28;20059;-65
2022/03/12 09:53:34;;;;;;;12.13;6.18;;;;;;;12.03;69.28;101660.78;5075326;28;21193;-65
2022/03/12 09:56:04;;;;;;;11.70;5.93;;;;;;;12.11;69.47;101663.81;5075249;28;20044;-65
2022/03/12 09:58:32;;;;;;;9.68;5.65;;;;;;;12.09;69.39;101669.19;5075144;28;20052;-65
2022/03/12 10:01:02;;;;;;;16.00;6.90;;;;;;;12.09;70.17;101671.81;5073859;28;20132;-66
2022/03/12 10:03:32;;;;;;;10.73;5.53;;;;;;;12.16;70.13;101667.88;5075385;28;20040;-66
2022/03/12 10:06:01;;;;;;;11.77;5.60;;;;;;;12.17;70.50;101663.44;5074822;28;20064;-65
2022/03/12 10:08:29;;;;;;;15.35;6.45;;;;;;;12.27;70.29;101669.88;5074852;28;20064;-65
2022/03/12 10:10:59;;;;;;;11.25;6.15;;;;;;;12.19;70.11;101669.47;5074758;28;20053;-65
2022/03/12 10:13:27;;;;;;;11.30;5.60;;;;;;;12.24;70.78;101669.19;5074827;28;20079;-65
2022/03/12 10:15:58;;;;;;;10.65;6.00;;;;;;;12.28;70.22;101660.16;5075177;28;20415;-65
2022/03/12 10:18:28;;;;;;;11.40;6.35;;;;;;;12.46;70.06;101663.50;5073619;28;20068;-66
2022/03/12 10:20:58;;;;;;;13.15;6.20;;;;;;;12.44;70.15;101662.75;5074867;28;20048;-66
2022/03/12 10:23:28;;;;;;;11.23;5.85;;;;;;;12.54;69.87;101670.94;5074831;28;20056;-65
2022/03/12 10:25:56;;;;;;;22.27;8.27;;;;;;;12.53;70.17;101670.13;5074649;28;20499;-66
2022/03/12 10:28:29;;;;;;;12.55;6.40;;;;;;;12.59;69.93;101663.63;5074766;28;20503;-65
2022/03/12 10:30:57;;;;;;;;;;;;;;;12.60;69.09;101666.16;5075323;28;20052;-66
2022/03/12 10:33:27;;;;;;;11.35;5.97;;;;;;;12.48;69.94;101653.69;5074472;28;20007;-65
2022/03/12 10:35:55;;;;;;;10.15;4.95;;;;;;;12.43;70.04;101661.03;5074297;28;20345;-65
2022/03/12 10:38:25;;;;;;;11.75;6.25;;;;;;;12.50;69.80;101655.31;5074272;28;20048;-66
2022/03/12 10:40:57;;;;;;;17.52;7.90;;;;;;;12.60;69.39;101663.50;5074572;28;20177;-65
2022/03/12 10:43:29;;;;;;;;;;;;;;;12.68;69.37;101663.91;5074769;28;20407;-65
2022/03/12 10:46:02;;;;;;;12.32;6.20;;;;;;;12.92;68.41;101662.47;5074194;28;19943;-65
2022/03/12 10:48:38;;;;;;;15.20;5.50;;;;;;;12.95;68.86;101672.84;5074257;28;20048;-65
2022/03/12 10:51:09;;;;;;;23.40;6.97;;;;;;;12.92;67.73;101681.78;5074323;28;20056;-64
2022/03/12 10:53:39;;;;;;;10.02;4.50;;;;;;;12.94;67.48;101673.78;5074069;28;20071;-65
2022/03/12 10:56:08;;;;;;;10.07;4.50;;;;;;;13.07;68.03;101680.00;5074001;28;20080;-64
2022/03/12 10:58:38;;;;;;;8.73;4.53;;;;;;;13.01;66.96;101677.75;5073509;28;20510;-65
2022/03/12 11:01:08;;;;;;;8.32;3.90;;;;;;;13.05;66.52;101681.03;5073250;28;20055;-65
2022/03/12 11:03:37;;;;;;;8.30;4.43;;;;;;;12.97;66.87;101689.44;5073371;28;20070;-65
2022/03/12 11:06:07;;;;;;;10.18;4.50;;;;;;;13.08;66.23;101684.34;5073740;28;20040;-65
2022/03/12 11:08:36;;;;;;;9.75;4.15;;;;;;;13.10;66.29;101676.31;5072572;28;20098;-65
2022/03/12 11:11:11;;;;;;;9.70;5.57;;;;;;;13.22;65.84;101683.47;5073891;28;20051;-64
2022/03/12 11:13:44;;;;;;;8.13;5.07;;;;;;;13.38;65.56;101687.84;5073818;28;20049;-65
2022/03/12 11:16:20;;;;;;;8.77;4.35;;;;;;;13.46;64.94;101682.91;5074022;28;20079;-65
2022/03/12 11:19:11;;;;;;;8.55;3.88;;;;;;;13.23;63.63;101687.81;5073620;28;20041;-65
2022/03/12 11:21:44;;;;;;;9.52;3.75;;;;;;;13.42;63.64;101684.03;5073995;28;20056;-65
2022/03/12 11:24:16;;;;;;;9.13;4.32;;;;;;;13.36;63.89;101687.91;5073367;28;20052;-65
2022/03/12 11:26:49;;;;;;;11.05;4.15;;;;;;;13.48;63.87;101686.28;5073351;28;20398;-65
2022/03/12 11:29:22;;;;;;;8.60;3.95;;;;;;;13.58;63.63;101679.47;5073256;28;20048;-65
2022/03/12 11:31:52;;;;;;;7.35;4.03;;;;;;;13.59;63.58;101678.50;5072027;28;20046;-65
2022/03/12 11:34:23;;;;;;;7.32;3.58;;;;;;;13.71;62.25;101678.69;5073409;28;20064;-65
2022/03/12 11:37:06;;;;;;;10.45;3.80;;;;;;;13.56;62.71;101683.16;5073739;28;20529;-65